Time;durP1;ratioP1;P1;durP2;ratioP2;P2;SDS_P1;SDS_P2;PMS_P1;PMS_P2;Temp;Humidity;BMP_temperature;BMP_pressure;BME280_temperature;BME280_humidity;BME280_pressure;Samples;Min_cycle;Max_cycle;Signal;HPM_P1;HPM_P2
2022/05/03 00:01:25;;;;;;;9.15;7.70;;;12.30;67.90;;;;;;5052542;28;20037;-67
2022/05/03 00:04:08;;;;;;;8.75;7.18;;;12.20;67.80;;;;;;5051435;28;20035;-66
2022/05/03 00:07:01;;;;;;;7.68;6.97;;;12.20;68.20;;;;;;5056729;28;20112;-67
2022/05/03 00:09:45;;;;;;;8.35;7.55;;;12.20;68.60;;;;;;5054940;28;20584;-66
2022/05/03 00:12:15;;;;;;;7.63;6.93;;;12.10;68.40;;;;;;5053649;28;20556;-67
2022/05/03 00:14:48;;;;;;;7.35;6.65;;;12.10;67.80;;;;;;5051803;28;20116;-66
2022/05/03 00:17:16;;;;;;;7.68;6.97;;;12.00;67.90;;;;;;5055920;28;20033;-67
2022/05/03 00:19:44;;;;;;;7.72;7.03;;;12.00;67.70;;;;;;5057294;28;20032;-67
2022/05/03 00:22:12;;;;;;;8.30;7.30;;;12.00;67.90;;;;;;5056828;28;20588;-67
2022/05/03 00:24:39;;;;;;;8.25;7.32;;;11.90;67.90;;;;;;5052829;28;20036;-67
2022/05/03 00:27:04;;;;;;;8.23;7.43;;;11.90;67.90;;;;;;5052368;28;20025;-67
2022/05/03 00:29:33;;;;;;;8.77;7.88;;;11.80;68.00;;;;;;5053358;28;20052;-67
2022/05/03 00:32:01;;;;;;;7.78;6.97;;;11.70;68.30;;;;;;5053891;28;20386;-68
2022/05/03 00:34:29;;;;;;;9.07;7.65;;;11.70;68.40;;;;;;5056057;28;20056;-67
2022/05/03 00:36:55;;;;;;;8.38;7.57;;;11.60;68.70;;;;;;5051547;28;20091;-65
2022/05/03 00:39:20;;;;;;;7.85;7.03;;;11.50;68.90;;;;;;5056902;28;20033;-67
2022/05/03 00:42:03;;;;;;;9.00;7.82;;;11.50;69.00;;;;;;5054486;28;20040;-66
2022/05/03 00:44:55;;;;;;;8.65;7.68;;;11.40;70.00;;;;;;5052538;28;20060;-66
2022/05/03 00:47:28;;;;;;;8.25;6.82;;;11.40;69.90;;;;;;5052680;28;20334;-67
2022/05/03 00:50:17;;;;;;;8.35;7.10;;;11.30;69.70;;;;;;5052804;28;20520;-66
2022/05/03 00:52:48;;;;;;;8.48;7.63;;;11.30;69.40;;;;;;5052873;28;20036;-66
2022/05/03 00:55:32;;;;;;;8.80;7.40;;;11.30;69.90;;;;;;5053642;28;20078;-67
2022/05/03 00:58:30;;;;;;;10.13;7.70;;;11.20;69.50;;;;;;5052315;28;20125;-67
2022/05/03 01:01:04;;;;;;;8.43;7.20;;;11.20;69.50;;;;;;5027288;28;20413;-66
2022/05/03 01:03:55;;;;;;;8.43;7.55;;;11.10;69.90;;;;;;5051788;28;20033;-66
2022/05/03 01:06:26;;;;;;;8.18;7.47;;;11.00;70.70;;;;;;5050612;28;20037;-67
2022/05/03 01:09:04;;;;;;;9.57;7.70;;;10.90;70.30;;;;;;5056887;28;20688;-67
2022/05/03 01:11:52;;;;;;;9.38;7.38;;;10.90;70.80;;;;;;5055758;28;20040;-66
2022/05/03 01:14:32;;;;;;;8.82;7.57;;;10.80;70.60;;;;;;5055248;28;20779;-67
2022/05/03 01:17:04;;;;;;;8.75;7.85;;;10.70;70.70;;;;;;5052910;28;20211;-67
2022/05/03 01:20:03;;;;;;;9.02;7.57;;;10.70;71.10;;;;;;5058010;28;20036;-67
2022/05/03 01:22:47;;;;;;;9.30;7.43;;;10.70;71.80;;;;;;5059745;28;20509;-66
2022/05/03 01:26:01;;;;;;;8.63;7.55;;;10.60;71.10;;;;;;5056531;28;20035;-67
2022/05/03 01:28:48;;;;;;;8.40;7.60;;;10.60;72.40;;;;;;5055830;28;20051;-67
2022/05/03 01:31:15;;;;;;;7.75;6.93;;;10.50;72.10;;;;;;5057007;28;20103;-67
2022/05/03 01:33:42;;;;;;;8.55;7.65;;;10.50;71.10;;;;;;5054721;28;20036;-66
2022/05/03 01:36:09;;;;;;;10.00;8.20;;;10.40;71.30;;;;;;5055052;28;20060;-66
2022/05/03 01:38:53;;;;;;;8.93;7.47;;;10.30;71.40;;;;;;5057567;28;20037;-65
2022/05/03 01:41:39;;;;;;;11.98;8.25;;;10.30;72.60;;;;;;5055246;28;20888;-67
2022/05/03 01:44:27;;;;;;;;;;;10.20;71.90;;;;;;5056665;28;20456;-67
2022/05/03 01:47:08;;;;;;;9.18;7.75;;;10.30;72.60;;;;;;5040194;28;19965;-66
2022/05/03 01:53:36;;;;;;;8.93;8.02;;;10.20;72.20;;;;;;5059049;28;20594;-66
2022/05/03 01:56:36;;;;;;;8.30;7.47;;;10.10;72.70;;;;;;4991649;28;20783;-65
2022/05/03 01:59:26;;;;;;;9.70;8.02;;;10.10;73.00;;;;;;5055170;28;20512;-66
2022/05/03 02:01:53;;;;;;;8.52;7.50;;;10.00;72.30;;;;;;5035847;28;20032;-64
2022/05/03 02:04:25;;;;;;;8.90;8.00;;;10.00;71.90;;;;;;5036394;28;20367;-67
2022/05/03 02:07:11;;;;;;;9.77;8.27;;;10.00;72.10;;;;;;5040336;28;20064;-67
2022/05/03 02:09:49;;;;;;;9.02;7.70;;;10.00;72.90;;;;;;5056752;28;20056;-67
2022/05/03 02:12:17;;;;;;;10.07;7.80;;;10.00;72.90;;;;;;5065231;28;20033;-66
2022/05/03 02:15:05;;;;;;;8.18;7.35;;;10.00;72.40;;;;;;5054446;28;20112;-66
2022/05/03 02:17:36;;;;;;;9.07;8.18;;;10.00;73.40;;;;;;5056643;28;20166;-66
2022/05/03 02:20:05;;;;;;;8.65;7.75;;;10.00;72.60;;;;;;5054557;28;20135;-67
2022/05/03 02:22:30;;;;;;;9.25;8.35;;;10.00;72.60;;;;;;5054251;28;20036;-66
2022/05/03 02:25:17;;;;;;;9.32;8.32;;;9.90;72.40;;;;;;5055738;28;20420;-66
2022/05/03 02:27:49;;;;;;;11.40;7.90;;;9.90;73.50;;;;;;5055467;28;20056;-66
2022/05/03 02:30:17;;;;;;;9.20;8.30;;;9.90;73.00;;;;;;5053159;28;20569;-67
2022/05/03 02:33:20;;;;;;;9.15;7.85;;;9.80;73.90;;;;;;5052864;28;20048;-66
2022/05/03 02:35:54;;;;;;;10.10;7.70;;;9.90;74.10;;;;;;5056059;28;20040;-65
2022/05/03 02:38:36;;;;;;;8.93;8.00;;;9.90;73.20;;;;;;5054734;28;20105;-66
2022/05/03 02:41:05;;;;;;;10.50;7.47;;;9.90;73.40;;;;;;5056024;28;20044;-65
2022/05/03 02:43:31;;;;;;;8.70;7.80;;;9.90;72.70;;;;;;5053247;28;20796;-66
2022/05/03 02:46:13;;;;;;;8.57;7.53;;;10.00;72.60;;;;;;5055020;28;20044;-67
2022/05/03 02:48:47;;;;;;;9.77;7.82;;;10.00;72.80;;;;;;5056326;28;20525;-67
2022/05/03 02:51:16;;;;;;;8.73;7.82;;;10.00;72.60;;;;;;5053025;28;20048;-67
2022/05/03 02:53:51;;;;;;;9.05;8.15;;;9.90;72.50;;;;;;5054802;28;20123;-67
2022/05/03 02:56:24;;;;;;;10.30;8.60;;;9.90;72.50;;;;;;5055644;28;20506;-66
2022/05/03 02:59:14;;;;;;;10.23;8.43;;;9.80;73.30;;;;;;5055479;28;20197;-66
2022/05/03 03:01:51;;;;;;;9.75;8.48;;;9.80;73.80;;;;;;5058346;28;20033;-67
2022/05/03 03:04:40;;;;;;;12.43;8.77;;;9.70;73.60;;;;;;5054594;28;20028;-68
2022/05/03 03:07:07;;;;;;;11.15;8.15;;;9.70;74.70;;;;;;5052500;28;20047;-67
2022/05/03 03:09:44;;;;;;;9.50;8.50;;;9.70;73.20;;;;;;5057532;28;20106;-68
2022/05/03 03:12:27;;;;;;;10.18;9.18;;;9.70;73.20;;;;;;5053371;28;20039;-67
2022/05/03 03:15:14;;;;;;;9.20;8.20;;;9.70;74.00;;;;;;5054415;28;20077;-69
2022/05/03 03:17:42;;;;;;;9.95;7.88;;;9.70;74.20;;;;;;5056995;28;20029;-69
2022/05/03 03:20:08;;;;;;;11.60;8.50;;;9.70;73.20;;;;;;5054364;28;20216;-68
2022/05/03 03:22:55;;;;;;;9.48;8.45;;;9.70;73.20;;;;;;5054669;28;20074;-68
2022/05/03 03:25:22;;;;;;;10.90;8.40;;;9.70;74.00;;;;;;5056157;28;20109;-66
2022/05/03 03:27:51;;;;;;;10.98;8.75;;;9.70;73.10;;;;;;5052243;28;20029;-67
2022/05/03 03:30:17;;;;;;;9.48;8.27;;;9.70;73.20;;;;;;5055280;28;20040;-67
2022/05/03 03:33:01;;;;;;;11.38;9.07;;;9.70;73.20;;;;;;5055700;28;20599;-66
2022/05/03 03:35:30;;;;;;;9.57;8.27;;;9.60;73.90;;;;;;5055708;28;20393;-65
2022/05/03 03:37:59;;;;;;;9.43;8.38;;;9.60;73.00;;;;;;5056503;28;20056;-66
2022/05/03 03:40:26;;;;;;;9.82;8.55;;;9.60;73.00;;;;;;5054314;28;20700;-66
2022/05/03 03:42:51;;;;;;;10.10;8.68;;;9.60;73.00;;;;;;5053224;28;20029;-66
2022/05/03 03:45:17;;;;;;;9.77;8.43;;;9.60;73.00;;;;;;5053498;28;20039;-66
2022/05/03 03:47:45;;;;;;;9.82;8.35;;;9.60;73.00;;;;;;5056322;28;20548;-66
2022/05/03 03:50:12;;;;;;;9.93;8.82;;;9.50;73.00;;;;;;5053771;28;20040;-67
2022/05/03 03:52:41;;;;;;;9.48;8.48;;;9.50;73.00;;;;;;5052284;28;20085;-66
2022/05/03 03:55:08;;;;;;;10.32;8.55;;;9.50;73.00;;;;;;5052832;28;21751;-66
2022/05/03 03:57:36;;;;;;;10.32;8.43;;;9.50;73.10;;;;;;5054160;28;20130;-67
2022/05/03 04:00:05;;;;;;;9.60;8.38;;;9.50;73.20;;;;;;5056123;28;20491;-66
2022/05/03 04:02:31;;;;;;;10.98;8.60;;;9.50;73.20;;;;;;5055543;28;20085;-66
2022/05/03 04:04:59;;;;;;;9.93;8.38;;;9.50;73.00;;;;;;5053347;28;20048;-66
2022/05/03 04:07:25;;;;;;;9.95;7.82;;;9.40;72.90;;;;;;5051150;28;20037;-66
2022/05/03 04:09:51;;;;;;;11.05;8.63;;;9.30;72.80;;;;;;5053175;28;20408;-66
2022/05/03 04:12:20;;;;;;;10.45;8.38;;;9.40;72.90;;;;;;5054060;28;20532;-66
2022/05/03 04:14:46;;;;;;;9.57;8.05;;;9.30;73.10;;;;;;5052036;28;20036;-66
2022/05/03 04:17:11;;;;;;;9.23;8.23;;;9.30;73.00;;;;;;5053097;28;20056;-67
2022/05/03 04:19:37;;;;;;;10.70;7.78;;;9.20;73.20;;;;;;5052910;28;20404;-66
2022/05/03 04:22:12;;;;;;;9.80;8.70;;;9.30;73.30;;;;;;5054961;28;20102;-67
2022/05/03 04:24:40;;;;;;;8.77;7.88;;;9.30;73.40;;;;;;5053471;28;20047;-66
2022/05/03 04:27:06;;;;;;;11.13;8.00;;;9.20;73.30;;;;;;5052696;28;20040;-66
2022/05/03 04:29:32;;;;;;;10.63;8.32;;;9.30;73.30;;;;;;5053940;28;20035;-66
2022/05/03 04:31:57;;;;;;;13.32;8.02;;;9.20;73.40;;;;;;5053302;28;20029;-66
2022/05/03 04:34:23;;;;;;;11.95;8.23;;;9.20;73.40;;;;;;5049946;28;20109;-63
2022/05/03 04:36:49;;;;;;;8.98;8.07;;;9.20;73.60;;;;;;5036534;28;20479;-67
2022/05/03 04:39:15;;;;;;;9.98;8.25;;;9.20;73.60;;;;;;5055010;28;20033;-67
2022/05/03 04:41:40;;;;;;;10.40;8.25;;;9.20;73.60;;;;;;5056216;28;20043;-66
2022/05/03 04:44:06;;;;;;;11.93;8.20;;;9.20;73.60;;;;;;5058900;28;20037;-68
2022/05/03 04:46:32;;;;;;;12.00;8.00;;;9.20;73.80;;;;;;5059546;28;20056;-68
2022/05/03 04:48:57;;;;;;;11.00;8.77;;;9.20;73.90;;;;;;5057743;28;20052;-68
2022/05/03 04:51:24;;;;;;;10.75;9.18;;;9.20;74.00;;;;;;5054833;28;20029;-67
2022/05/03 04:53:50;;;;;;;15.20;9.52;;;9.20;75.10;;;;;;5057482;28;20124;-68
2022/05/03 04:56:20;;;;;;;10.55;8.93;;;9.30;74.20;;;;;;5055246;28;20131;-68
2022/05/03 04:58:47;;;;;;;11.52;9.75;;;9.30;74.50;;;;;;5058554;28;20037;-68
2022/05/03 05:01:14;;;;;;;12.80;10.50;;;9.30;74.30;;;;;;5058302;28;20164;-69
2022/05/03 05:03:41;;;;;;;12.93;10.57;;;9.30;74.40;;;;;;5056200;28;20041;-68
2022/05/03 05:06:07;;;;;;;13.13;10.23;;;9.30;74.50;;;;;;5059710;28;20028;-67
2022/05/03 05:08:33;;;;;;;14.27;11.73;;;9.30;74.70;;;;;;5059934;28;20101;-67
2022/05/03 05:10:58;;;;;;;13.00;11.23;;;9.30;74.90;;;;;;5055161;28;20033;-68
2022/05/03 05:13:24;;;;;;;13.35;10.55;;;9.30;75.30;;;;;;5058056;28;20033;-67
2022/05/03 05:15:50;;;;;;;16.15;12.02;;;9.40;75.60;;;;;;5058850;28;20028;-68
2022/05/03 05:18:16;;;;;;;14.63;12.50;;;9.40;75.90;;;;;;5055340;28;20045;-68
2022/05/03 05:20:42;;;;;;;15.48;12.93;;;9.50;76.00;;;;;;5058643;28;20516;-68
2022/05/03 05:23:08;;;;;;;16.50;12.98;;;9.50;76.20;;;;;;5055971;28;20132;-68
2022/05/03 05:25:34;;;;;;;13.75;11.27;;;9.60;76.30;;;;;;5057880;28;20113;-68
2022/05/03 05:27:59;;;;;;;14.82;11.95;;;9.70;76.40;;;;;;5056287;28;20453;-66
2022/05/03 05:30:25;;;;;;;16.63;12.40;;;9.80;76.50;;;;;;5056829;28;20024;-68
2022/05/03 05:32:52;;;;;;;20.58;13.05;;;9.80;76.50;;;;;;5055045;28;20025;-69
2022/05/03 05:35:18;;;;;;;15.82;13.00;;;9.90;76.40;;;;;;5055869;28;21178;-68
2022/05/03 05:37:43;;;;;;;15.10;12.65;;;9.90;76.40;;;;;;5058080;28;20036;-66
2022/05/03 05:40:09;;;;;;;14.27;12.02;;;10.00;76.60;;;;;;5057894;28;20051;-66
2022/05/03 05:42:35;;;;;;;13.38;11.45;;;10.10;76.90;;;;;;5058190;28;20036;-66
2022/05/03 05:45:01;;;;;;;15.05;12.38;;;10.10;76.80;;;;;;5057246;28;20631;-65
2022/05/03 05:47:27;;;;;;;14.45;12.70;;;10.20;77.00;;;;;;5060551;28;20519;-66
2022/05/03 05:49:53;;;;;;;14.10;12.30;;;10.20;77.10;;;;;;5058917;28;20091;-66
2022/05/03 05:55:04;;;;;;;15.40;12.13;;;10.40;77.40;;;;;;5057479;28;20139;-65
2022/05/03 05:57:30;;;;;;;16.70;13.32;;;10.40;77.50;;;;;;5055679;28;20299;-65
2022/05/03 05:59:55;;;;;;;15.85;13.05;;;10.50;77.50;;;;;;5056079;28;20128;-65
2022/05/03 06:02:21;;;;;;;16.20;13.40;;;10.60;77.70;;;;;;5057913;28;20464;-66
2022/05/03 06:04:47;;;;;;;16.88;13.90;;;10.70;77.90;;;;;;5056980;28;20057;-64
2022/05/03 06:07:12;;;;;;;16.30;14.02;;;10.80;77.90;;;;;;5058435;28;20036;-65
2022/05/03 06:09:38;;;;;;;18.83;15.10;;;10.80;78.00;;;;;;5059756;28;20033;-65
2022/05/03 06:12:04;;;;;;;17.27;14.10;;;10.90;78.10;;;;;;5054090;28;20082;-65
2022/05/03 06:14:30;;;;;;;16.15;14.05;;;11.00;78.20;;;;;;5059292;28;20024;-65
2022/05/03 06:16:57;;;;;;;18.75;14.40;;;11.10;78.20;;;;;;5056891;28;20056;-65
2022/05/03 06:19:24;;;;;;;21.17;15.05;;;11.20;78.30;;;;;;5058320;28;20515;-65
2022/05/03 06:21:50;;;;;;;19.48;14.77;;;11.20;78.20;;;;;;5057121;28;20029;-64
2022/05/03 06:24:16;;;;;;;16.98;14.27;;;11.30;78.20;;;;;;5056758;28;20032;-65
2022/05/03 06:26:42;;;;;;;18.92;14.35;;;11.40;77.80;;;;;;5057036;28;20116;-64
2022/05/03 06:29:09;;;;;;;17.70;14.38;;;11.50;77.60;;;;;;5057580;28;20493;-65
2022/05/03 06:31:38;;;;;;;15.57;13.75;;;11.60;77.50;;;;;;5059068;28;20051;-65
2022/05/03 06:34:04;;;;;;;17.42;13.70;;;11.70;77.40;;;;;;5058202;28;20032;-65
2022/05/03 06:36:30;;;;;;;16.30;13.10;;;11.80;77.10;;;;;;5056359;28;20029;-65
2022/05/03 06:38:56;;;;;;;13.75;12.15;;;11.90;77.00;;;;;;5057863;28;20040;-65
2022/05/03 06:41:22;;;;;;;15.57;11.85;;;12.00;77.60;;;;;;5073692;28;20365;-65
2022/05/03 06:43:47;;;;;;;16.02;12.70;;;12.00;76.60;;;;;;5057357;28;20032;-65
2022/05/03 06:46:13;;;;;;;14.32;12.73;;;12.10;77.40;;;;;;5057184;28;20033;-65
2022/05/03 06:48:39;;;;;;;14.05;12.25;;;12.20;76.50;;;;;;5058481;28;20505;-65
2022/05/03 06:51:05;;;;;;;16.58;14.55;;;12.20;76.40;;;;;;5056689;28;20142;-65
2022/05/03 06:53:31;;;;;;;16.67;14.48;;;12.30;76.60;;;;;;5058210;28;20107;-64
2022/05/03 06:55:57;;;;;;;18.38;13.88;;;12.30;76.30;;;;;;5055254;28;20123;-66
2022/05/03 06:58:23;;;;;;;16.35;13.75;;;12.40;76.30;;;;;;5054363;28;20033;-66
2022/05/03 07:00:49;;;;;;;17.45;13.43;;;12.50;76.30;;;;;;5055421;28;20051;-65
2022/05/03 07:03:16;;;;;;;15.82;13.25;;;12.60;76.20;;;;;;5057366;28;20033;-65
2022/05/03 07:05:42;;;;;;;15.27;13.68;;;12.60;76.10;;;;;;5056046;28;20493;-66
2022/05/03 07:08:09;;;;;;;17.55;14.98;;;12.70;76.10;;;;;;5054236;28;20033;-66
2022/05/03 07:10:35;;;;;;;20.90;15.35;;;12.80;77.20;;;;;;5052160;28;20029;-63
2022/05/03 07:13:00;;;;;;;16.80;13.98;;;12.90;76.10;;;;;;5054222;28;20035;-65
2022/05/03 07:15:27;;;;;;;15.38;13.00;;;13.00;75.90;;;;;;5056538;28;20077;-66
2022/05/03 07:23:23;;;;;;;14.27;12.48;;;13.20;75.40;;;;;;5055709;28;20166;-65
2022/05/03 07:25:50;;;;;;;18.90;14.82;;;13.30;75.20;;;;;;5056598;28;20525;-65
2022/05/03 07:28:16;;;;;;;15.45;13.77;;;13.30;75.10;;;;;;5055701;28;20028;-65
2022/05/03 07:30:42;;;;;;;15.20;13.25;;;13.40;74.90;;;;;;5057074;28;20038;-65
2022/05/03 07:33:08;;;;;;;16.73;14.25;;;13.50;74.90;;;;;;5057769;28;20028;-65
2022/05/03 07:35:34;;;;;;;16.90;14.38;;;13.60;75.10;;;;;;5058583;28;20151;-65
2022/05/03 07:38:00;;;;;;;15.23;13.60;;;13.60;75.10;;;;;;5054745;28;20765;-65
2022/05/03 07:40:26;;;;;;;14.77;13.10;;;13.70;75.10;;;;;;5054836;28;20040;-66
2022/05/03 07:42:52;;;;;;;15.60;13.60;;;13.80;74.80;;;;;;5056057;28;20047;-66
2022/05/03 07:45:17;;;;;;;14.25;12.55;;;13.90;74.70;;;;;;5057805;28;20044;-66
2022/05/03 07:47:43;;;;;;;16.08;12.70;;;14.00;74.60;;;;;;5058468;28;20120;-65
2022/05/03 07:50:09;;;;;;;14.30;12.48;;;14.10;74.60;;;;;;5057887;28;20051;-65
2022/05/03 07:52:35;;;;;;;15.00;13.38;;;14.20;74.50;;;;;;5052673;28;20051;-65
2022/05/03 07:55:02;;;;;;;16.67;13.27;;;14.30;74.30;;;;;;5054652;28;20064;-65
2022/05/03 07:57:28;;;;;;;16.85;14.10;;;14.40;74.10;;;;;;5055590;28;20067;-65
2022/05/03 07:59:55;;;;;;;15.93;13.43;;;14.50;73.70;;;;;;5053032;28;20029;-65
2022/05/03 08:02:24;;;;;;;15.80;13.80;;;14.60;73.30;;;;;;5051692;28;20037;-65
2022/05/03 08:04:51;;;;;;;15.13;13.52;;;14.70;73.50;;;;;;5057515;28;20065;-65
2022/05/03 08:07:17;;;;;;;13.85;12.43;;;14.70;73.40;;;;;;5055748;28;20037;-65
2022/05/03 08:09:43;;;;;;;16.15;12.88;;;14.80;73.30;;;;;;5055752;28;20516;-66
2022/05/03 08:12:09;;;;;;;16.02;13.07;;;14.90;73.00;;;;;;5054645;28;20037;-65
2022/05/03 08:14:34;;;;;;;15.23;12.98;;;15.00;73.00;;;;;;5054644;28;20398;-65
2022/05/03 08:17:01;;;;;;;16.73;13.95;;;15.10;72.90;;;;;;5058440;28;20555;-65
2022/05/03 08:19:26;;;;;;;14.98;12.90;;;15.20;72.50;;;;;;5060606;28;20572;-66
2022/05/03 08:21:54;;;;;;;14.75;13.18;;;15.30;72.20;;;;;;5062707;28;20041;-65
2022/05/03 08:24:20;;;;;;;15.73;14.07;;;15.40;72.20;;;;;;5062754;28;20115;-65
2022/05/03 08:26:46;;;;;;;14.85;13.25;;;15.40;72.30;;;;;;5061202;28;20400;-65
2022/05/03 08:29:11;;;;;;;14.75;12.77;;;15.50;71.60;;;;;;5061880;28;20553;-65
2022/05/03 08:31:37;;;;;;;16.63;13.25;;;15.60;71.50;;;;;;5059587;28;20032;-65
2022/05/03 08:34:02;;;;;;;15.10;13.55;;;15.70;71.40;;;;;;5062482;28;20045;-65
2022/05/03 08:36:29;;;;;;;14.27;12.35;;;15.80;71.40;;;;;;5059015;28;20055;-65
2022/05/03 08:44:25;;;;;;;12.45;11.20;;;16.00;71.50;;;;;;5059593;28;20102;-65
2022/05/03 08:46:53;;;;;;;11.85;10.65;;;16.20;69.80;;;;;;5061827;28;20068;-65
2022/05/03 08:49:20;;;;;;;10.15;9.15;;;16.30;69.00;;;;;;5061288;28;20044;-65
2022/05/03 08:51:48;;;;;;;12.82;10.82;;;16.30;69.10;;;;;;5058327;28;20032;-66
2022/05/03 08:54:15;;;;;;;11.35;10.18;;;16.40;68.00;;;;;;5058937;28;20453;-65
2022/05/03 08:56:40;;;;;;;10.57;9.50;;;16.50;68.10;;;;;;5059817;28;20409;-66
2022/05/03 08:59:07;;;;;;;11.05;9.73;;;16.50;68.30;;;;;;5058079;28;20033;-65
2022/05/03 09:01:33;;;;;;;10.82;9.73;;;16.60;68.20;;;;;;5059676;28;20032;-66
2022/05/03 09:03:58;;;;;;;13.20;10.60;;;16.70;68.00;;;;;;5059114;28;20040;-65
2022/05/03 09:06:50;;;;;;;12.02;10.45;;;16.70;67.50;;;;;;5058899;28;20024;-65
2022/05/03 09:09:20;;;;;;;11.93;10.18;;;16.90;66.50;;;;;;5058669;28;20032;-65
2022/05/03 09:11:53;;;;;;;11.73;10.52;;;16.90;67.20;;;;;;5057045;28;21290;-65
2022/05/03 09:14:34;;;;;;;11.73;10.07;;;17.00;67.10;;;;;;5055851;28;20040;-65
2022/05/03 09:17:02;;;;;;;11.52;9.20;;;17.10;66.70;;;;;;5060068;28;20166;-65
2022/05/03 09:19:28;;;;;;;10.65;9.65;;;17.20;67.00;;;;;;5075396;28;20044;-65
2022/05/03 09:24:52;;;;;;;;;;;17.40;65.50;;;;;;5059759;28;20040;-65
2022/05/03 09:27:18;;;;;;;11.30;8.40;;;17.60;65.30;;;;;;5057880;28;19920;-65
2022/05/03 09:30:00;;;;;;;8.32;7.53;;;17.70;66.00;;;;;;5059426;28;20037;-65
2022/05/03 09:32:47;;;;;;;11.85;8.77;;;17.70;64.40;;;;;;5057996;28;20038;-65
2022/05/03 09:35:33;;;;;;;9.40;8.45;;;17.90;65.30;;;;;;5058489;28;20121;-66
2022/05/03 09:38:01;;;;;;;10.30;8.48;;;18.00;63.00;;;;;;5059432;28;20082;-65
2022/05/03 09:40:27;;;;;;;8.23;7.53;;;18.10;64.00;;;;;;5057920;28;20082;-65
2022/05/03 09:42:55;;;;;;;7.03;6.25;;;18.20;63.80;;;;;;5076234;28;20506;-66
2022/05/03 09:45:22;;;;;;;7.10;6.40;;;18.30;63.40;;;;;;5057349;28;20094;-66
2022/05/03 09:47:52;;;;;;;7.38;6.68;;;18.40;62.90;;;;;;5060028;28;20122;-66
2022/05/03 09:50:29;;;;;;;8.07;7.28;;;18.50;62.60;;;;;;5058709;28;20652;-66
2022/05/03 09:52:56;;;;;;;8.23;7.45;;;18.60;60.90;;;;;;5059931;28;20414;-65
2022/05/03 09:55:32;;;;;;;7.88;7.07;;;18.70;62.00;;;;;;5057708;28;20402;-66
2022/05/03 09:58:03;;;;;;;9.20;7.70;;;18.80;61.30;;;;;;5056880;28;21524;-65
2022/05/03 10:00:34;;;;;;;10.73;7.78;;;18.90;61.20;;;;;;5058342;28;20029;-66
2022/05/03 10:03:01;;;;;;;7.88;7.05;;;19.10;61.30;;;;;;5058351;28;20131;-66
2022/05/03 10:05:27;;;;;;;7.63;6.93;;;19.10;60.80;;;;;;5059832;28;20048;-66
2022/05/03 10:07:54;;;;;;;7.43;6.72;;;19.20;60.30;;;;;;5058669;28;20036;-66
2022/05/03 10:10:22;;;;;;;11.30;7.18;;;19.30;59.80;;;;;;5058241;28;20548;-66
2022/05/03 10:12:53;;;;;;;9.38;7.97;;;19.40;59.30;;;;;;5024719;28;20032;-66
2022/05/03 10:21:12;;;;;;;9.57;8.60;;;19.60;58.60;;;;;;5046371;28;20031;-66
2022/05/03 10:23:38;;;;;;;8.63;7.72;;;19.70;58.10;;;;;;5056933;28;20035;-66
2022/05/03 10:26:09;;;;;;;9.73;8.73;;;19.70;58.80;;;;;;5058766;28;20033;-66
2022/05/03 10:29:08;;;;;;;9.20;8.07;;;19.80;57.70;;;;;;5059192;28;20042;-66
2022/05/03 10:31:56;;;;;;;8.52;7.60;;;19.80;57.80;;;;;;5054802;28;20033;-65
2022/05/03 10:34:40;;;;;;;7.90;7.20;;;19.80;57.70;;;;;;5056672;28;20741;-65
2022/05/03 10:37:10;;;;;;;8.63;7.72;;;19.80;57.70;;;;;;5057431;28;20548;-65
2022/05/03 10:39:51;;;;;;;7.82;7.13;;;19.90;58.30;;;;;;5057771;28;20389;-66
2022/05/03 10:42:20;;;;;;;7.80;7.07;;;19.90;57.40;;;;;;5074117;28;20085;-65
2022/05/03 10:44:57;;;;;;;8.00;7.30;;;20.00;57.70;;;;;;5057196;28;20084;-66
2022/05/03 10:47:44;;;;;;;8.95;7.40;;;20.10;56.50;;;;;;5058265;28;20135;-64
2022/05/03 10:50:12;;;;;;;7.85;6.88;;;20.10;55.80;;;;;;5056243;28;20511;-66
2022/05/03 10:53:07;;;;;;;6.30;5.72;;;20.20;55.10;;;;;;5054380;28;20028;-66
2022/05/03 10:55:40;;;;;;;6.28;5.68;;;20.20;55.00;;;;;;5049132;28;20057;-65
2022/05/03 10:58:25;;;;;;;6.47;5.88;;;20.20;55.60;;;;;;5056738;28;20040;-65
2022/05/03 11:01:08;;;;;;;5.22;4.72;;;20.20;54.30;;;;;;5054531;28;20041;-65
2022/05/03 11:03:54;;;;;;;5.80;4.20;;;20.20;54.90;;;;;;5054293;28;20026;-66
2022/05/03 11:06:22;;;;;;;4.93;4.50;;;20.30;55.00;;;;;;5034907;28;20110;-65
2022/05/03 11:11:50;;;;;;;5.47;4.97;;;20.40;54.80;;;;;;5054097;28;20949;-65
2022/05/03 11:14:16;;;;;;;5.47;4.50;;;20.50;55.00;;;;;;5053530;28;20568;-64
2022/05/03 11:16:42;;;;;;;8.75;5.90;;;20.50;55.50;;;;;;5053748;28;20033;-65
2022/05/03 11:19:12;;;;;;;4.95;4.30;;;20.60;54.60;;;;;;5055008;28;20089;-65
2022/05/03 11:21:38;;;;;;;6.05;5.07;;;20.70;54.60;;;;;;5054712;28;20154;-65
2022/05/03 11:24:05;;;;;;;5.57;4.60;;;20.70;55.00;;;;;;5052259;28;20029;-66
2022/05/03 11:26:31;;;;;;;4.38;3.97;;;20.80;54.90;;;;;;5054697;28;20025;-65
2022/05/03 11:28:58;;;;;;;5.22;4.72;;;20.90;55.00;;;;;;5052873;28;20155;-65
2022/05/03 11:31:26;;;;;;;5.70;4.82;;;20.90;54.30;;;;;;5053841;28;20025;-65
2022/05/03 11:33:53;;;;;;;5.28;4.72;;;20.90;53.10;;;;;;5053545;28;20036;-66
2022/05/03 11:36:22;;;;;;;4.93;4.18;;;21.00;53.80;;;;;;5054369;28;20456;-66
2022/05/03 11:38:53;;;;;;;5.30;4.82;;;21.00;54.00;;;;;;5053407;28;20083;-65
2022/05/03 11:41:24;;;;;;;5.05;4.55;;;21.00;52.70;;;;;;5053814;28;20032;-65
2022/05/03 11:43:50;;;;;;;5.88;4.68;;;21.00;53.30;;;;;;5052502;28;20044;-63
2022/05/03 11:46:16;;;;;;;5.45;4.93;;;21.00;53.30;;;;;;5053261;28;20032;-66
2022/05/03 11:48:43;;;;;;;5.15;4.63;;;21.00;52.90;;;;;;5054243;28;20031;-66
2022/05/03 11:57:27;;;;;;;5.20;4.70;;;21.10;52.60;;;;;;5054159;28;20040;-65
2022/05/03 11:59:58;;;;;;;5.63;4.50;;;21.10;52.60;;;;;;5054102;28;20047;-66
2022/05/03 12:02:32;;;;;;;4.72;4.32;;;21.20;52.20;;;;;;5053656;28;20448;-66
2022/05/03 12:05:16;;;;;;;4.40;4.00;;;21.20;52.20;;;;;;5053004;28;20045;-67
2022/05/03 12:07:49;;;;;;;4.82;3.92;;;21.20;51.70;;;;;;5069087;28;20143;-66
2022/05/03 12:10:26;;;;;;;4.95;4.47;;;21.20;52.40;;;;;;5055016;28;20039;-66
2022/05/03 12:13:06;;;;;;;4.55;4.13;;;21.20;52.00;;;;;;5055795;28;21747;-66
2022/05/03 12:15:33;;;;;;;5.38;4.03;;;21.20;51.70;;;;;;5055164;28;20033;-66
2022/05/03 12:18:11;;;;;;;3.78;3.25;;;21.20;51.80;;;;;;5057783;28;20033;-66
2022/05/03 12:20:44;;;;;;;3.80;3.40;;;21.20;51.80;;;;;;5055000;28;20025;-66
2022/05/03 12:23:20;;;;;;;3.30;3.00;;;21.30;51.40;;;;;;5056148;28;20162;-66
2022/05/03 12:25:48;;;;;;;3.25;2.95;;;21.40;51.30;;;;;;5055522;28;20025;-66
2022/05/03 12:28:14;;;;;;;2.70;2.50;;;21.50;51.40;;;;;;5055793;28;20033;-66
2022/05/03 12:30:41;;;;;;;3.38;2.88;;;21.50;51.00;;;;;;5053407;28;20466;-66
2022/05/03 12:33:11;;;;;;;3.42;3.10;;;21.60;50.00;;;;;;5055826;28;20040;-66
2022/05/03 12:35:39;;;;;;;3.45;2.30;;;21.60;48.70;;;;;;5052769;28;20111;-66
2022/05/03 12:38:17;;;;;;;2.55;2.30;;;21.60;49.40;;;;;;5054829;28;20072;-66
2022/05/03 12:40:46;;;;;;;6.35;2.35;;;21.60;48.50;;;;;;5051599;28;20116;-66
2022/05/03 12:43:17;;;;;;;3.33;2.90;;;21.60;49.80;;;;;;5053297;28;20035;-67
2022/05/03 12:46:04;;;;;;;3.10;2.80;;;21.60;50.30;;;;;;5050290;28;20119;-65
2022/05/03 12:48:38;;;;;;;4.25;2.85;;;21.60;49.20;;;;;;5056943;28;20029;-66
2022/05/03 12:51:05;;;;;;;5.22;3.28;;;21.60;49.30;;;;;;5057402;28;20040;-66
2022/05/03 12:53:33;;;;;;;2.88;2.67;;;21.60;49.10;;;;;;5055200;28;20075;-66
2022/05/03 12:58:45;;;;;;;3.00;2.22;;;21.60;49.20;;;;;;5055199;28;20141;-66
2022/05/03 13:01:11;;;;;;;3.67;1.80;;;21.60;49.30;;;;;;5056631;28;20036;-67
2022/05/03 13:03:38;;;;;;;2.72;2.00;;;21.60;49.30;;;;;;5059150;28;20029;-66
2022/05/03 13:06:04;;;;;;;2.80;1.70;;;21.60;49.10;;;;;;5059915;28;20028;-66
2022/05/03 13:08:30;;;;;;;2.40;1.80;;;21.60;49.60;;;;;;5059286;28;20494;-66
2022/05/03 13:10:57;;;;;;;2.25;1.77;;;21.70;48.60;;;;;;5054356;28;20037;-66
2022/05/03 13:13:24;;;;;;;1.70;1.60;;;21.80;48.40;;;;;;5055309;28;20040;-66
2022/05/03 13:15:50;;;;;;;1.83;1.73;;;21.80;47.30;;;;;;5055558;28;20032;-66
2022/05/03 13:18:16;;;;;;;3.25;2.05;;;21.90;46.50;;;;;;5058260;28;20047;-66
2022/05/03 13:20:43;;;;;;;2.78;2.45;;;21.90;47.30;;;;;;5056792;28;20028;-65
2022/05/03 13:23:09;;;;;;;2.92;2.20;;;21.90;48.80;;;;;;5056061;28;20050;-66
2022/05/03 13:25:35;;;;;;;3.30;3.00;;;21.90;49.30;;;;;;5055618;28;20348;-67
2022/05/03 13:28:01;;;;;;;2.75;2.50;;;21.90;49.00;;;;;;5053723;28;20500;-67
2022/05/03 13:30:27;;;;;;;2.92;2.67;;;21.90;48.80;;;;;;5059282;28;20053;-67
2022/05/03 13:32:53;;;;;;;4.45;2.50;;;21.90;48.50;;;;;;5060877;28;20032;-67
2022/05/03 13:40:28;;;;;;;4.43;2.80;;;21.90;49.20;;;;;;5059085;28;20356;-67
2022/05/03 13:40:49;;;;;;;3.63;2.65;;;21.80;50.00;;;;;;5059768;28;20028;-67
2022/05/03 13:43:15;;;;;;;3.00;2.80;;;21.80;49.00;;;;;;5060385;28;20466;-67